Time;durP1;ratioP1;P1;durP2;ratioP2;P2;SDS_P1;SDS_P2;PMS_P1;PMS_P2;Temp;Humidity;BMP_temperature;BMP_pressure;BME280_temperature;BME280_humidity;BME280_pressure;Samples;Min_cycle;Max_cycle;Signal;HPM_P1;HPM_P2
2023/01/27 00:00:16;;;;;;;16.77;9.57;;;-1.70;99.90;;;;;;5038315;28;20564;-54
2023/01/27 00:02:43;;;;;;;25.63;11.27;;;-1.70;99.90;;;;;;5039783;28;20051;-54
2023/01/27 00:05:12;;;;;;;23.85;10.98;;;-1.70;99.90;;;;;;5039032;28;20045;-53
2023/01/27 00:07:44;;;;;;;19.75;10.65;;;-1.60;99.90;;;;;;5041992;28;20103;-53
2023/01/27 00:10:16;;;;;;;25.60;11.88;;;-1.70;99.90;;;;;;5037776;28;20045;-54
2023/01/27 00:15:31;;;;;;;19.38;9.75;;;-1.70;99.90;;;;;;5039310;28;20285;-55
2023/01/27 00:17:57;;;;;;;23.10;11.27;;;-1.70;99.90;;;;;;5040085;28;20392;-54
2023/01/27 00:26:06;;;;;;;23.85;10.70;;;-1.70;99.90;;;;;;5038806;28;20209;-55
2023/01/27 00:28:34;;;;;;;20.58;10.88;;;-1.60;99.90;;;;;;5039528;28;20343;-55
2023/01/27 00:31:02;;;;;;;23.38;11.30;;;-1.60;99.90;;;;;;5038893;28;20147;-54
2023/01/27 00:33:29;;;;;;;20.50;10.23;;;-1.60;99.90;;;;;;5041245;28;20290;-53
2023/01/27 00:36:07;;;;;;;23.00;9.38;;;-1.70;99.90;;;;;;5040222;28;20049;-54
2023/01/27 00:38:40;;;;;;;20.35;10.05;;;-1.60;99.90;;;;;;5038001;28;20568;-52
2023/01/27 00:41:20;;;;;;;21.05;10.27;;;-1.60;99.90;;;;;;5040845;28;20463;-54
2023/01/27 00:43:48;;;;;;;19.38;9.85;;;-1.60;99.90;;;;;;5041321;28;20458;-53
2023/01/27 00:46:16;;;;;;;20.27;9.30;;;-1.60;99.90;;;;;;5039012;28;20395;-53
2023/01/27 00:48:43;;;;;;;19.48;10.48;;;-1.60;99.90;;;;;;5023269;28;20053;-54
2023/01/27 00:51:12;;;;;;;22.50;10.65;;;-1.60;99.90;;;;;;5039375;28;20049;-53
2023/01/27 00:53:40;;;;;;;20.67;10.10;;;-1.60;99.90;;;;;;5039194;28;20056;-53
2023/01/27 00:56:07;;;;;;;22.33;10.63;;;-1.60;99.90;;;;;;5039231;28;20051;-52
2023/01/27 00:58:34;;;;;;;19.58;10.65;;;-1.60;99.90;;;;;;5038494;28;20479;-54
2023/01/27 01:01:03;;;;;;;17.95;9.25;;;-1.60;99.90;;;;;;5039738;28;20117;-54
2023/01/27 01:03:31;;;;;;;21.58;10.90;;;-1.60;99.90;;;;;;5047061;28;20604;-54
2023/01/27 01:06:04;;;;;;;20.65;10.35;;;-1.60;99.90;;;;;;5040498;28;20510;-53
2023/01/27 01:08:32;;;;;;;20.92;10.10;;;-1.60;99.90;;;;;;5039197;28;20049;-54
2023/01/27 01:11:02;;;;;;;19.38;9.88;;;-1.60;99.90;;;;;;5037685;28;20045;-53
2023/01/27 01:13:29;;;;;;;20.88;10.20;;;-1.60;99.90;;;;;;5038046;28;20056;-54
2023/01/27 01:15:56;;;;;;;;;;;-1.60;99.90;;;;;;5041159;28;20515;-55
2023/01/27 01:18:23;;;;;;;17.30;8.55;;;-1.60;99.90;;;;;;5038654;28;19967;-54
2023/01/27 01:20:50;;;;;;;20.15;10.55;;;-1.60;99.90;;;;;;5040586;28;20412;-54
2023/01/27 01:23:17;;;;;;;18.17;9.40;;;-1.60;99.90;;;;;;5040102;28;20075;-54
2023/01/27 01:25:54;;;;;;;21.73;10.30;;;-1.60;99.90;;;;;;5039461;28;20036;-54
2023/01/27 01:28:22;;;;;;;17.33;9.43;;;-1.60;99.90;;;;;;5036990;28;20520;-54
2023/01/27 01:30:49;;;;;;;18.90;9.63;;;-1.60;99.90;;;;;;5039647;28;20775;-54
2023/01/27 01:33:16;;;;;;;19.65;10.35;;;-1.60;99.90;;;;;;5039456;28;20350;-54
2023/01/27 01:35:43;;;;;;;21.27;10.48;;;-1.60;99.90;;;;;;5038313;28;20122;-54
2023/01/27 01:38:10;;;;;;;21.25;10.27;;;-1.60;99.90;;;;;;5045299;28;20068;-53
2023/01/27 01:40:41;;;;;;;;;;;-1.60;99.90;;;;;;5041287;28;20313;-54
2023/01/27 01:43:17;;;;;;;20.75;11.55;;;-1.60;99.90;;;;;;5040613;28;20251;-54
2023/01/27 01:45:48;;;;;;;20.17;9.32;;;-1.60;99.90;;;;;;5046246;28;20041;-54
2023/01/27 01:48:35;;;;;;;19.40;11.20;;;-1.60;99.90;;;;;;5037781;28;20051;-54
2023/01/27 01:51:31;;;;;;;23.70;12.68;;;-1.60;99.90;;;;;;5046057;28;20036;-55
2023/01/27 01:54:02;;;;;;;22.05;11.07;;;-1.60;99.90;;;;;;5045510;28;20455;-53
2023/01/27 01:56:34;;;;;;;20.65;11.00;;;-1.60;99.90;;;;;;5039596;28;20072;-56
2023/01/27 01:59:10;;;;;;;19.63;9.63;;;-1.60;99.90;;;;;;5038103;28;20068;-55
2023/01/27 02:01:36;;;;;;;19.27;9.45;;;-1.60;99.90;;;;;;5036542;28;20053;-55
2023/01/27 02:04:06;;;;;;;;;;;-1.60;99.90;;;;;;5038785;28;20283;-54
2023/01/27 02:06:41;;;;;;;17.10;9.10;;;-1.60;99.90;;;;;;5038398;28;19935;-54
2023/01/27 02:09:09;;;;;;;17.75;9.63;;;-1.60;99.90;;;;;;5039447;28;20068;-52
2023/01/27 02:11:36;;;;;;;20.85;10.07;;;-1.60;99.90;;;;;;5037938;28;20062;-54
2023/01/27 02:14:03;;;;;;;;;;;-1.60;99.90;;;;;;5042350;28;20102;-54
2023/01/27 02:16:30;;;;;;;18.25;9.63;;;-1.60;99.90;;;;;;5037224;28;19929;-54
2023/01/27 02:18:57;;;;;;;21.42;10.02;;;-1.60;99.90;;;;;;5037829;28;20401;-56
2023/01/27 02:21:24;;;;;;;;;;;-1.60;99.90;;;;;;5046318;28;20203;-53
2023/01/27 02:24:00;;;;;;;25.73;11.10;;;-1.60;99.90;;;;;;5036866;28;19943;-54
2023/01/27 02:26:28;;;;;;;23.58;11.70;;;-1.60;99.90;;;;;;5038913;28;20594;-53
2023/01/27 02:28:59;;;;;;;24.30;13.23;;;-1.60;99.90;;;;;;5035338;28;20092;-54
2023/01/27 02:31:26;;;;;;;28.02;13.75;;;-1.60;99.90;;;;;;5038179;28;20376;-54
2023/01/27 02:33:59;;;;;;;28.13;14.05;;;-1.70;99.90;;;;;;5040261;28;20348;-54
2023/01/27 02:36:29;;;;;;;30.70;15.00;;;-1.70;99.90;;;;;;5045895;28;20992;-54
2023/01/27 02:38:58;;;;;;;30.35;14.38;;;-1.70;99.90;;;;;;5038584;28;20040;-54
2023/01/27 02:41:38;;;;;;;31.00;17.10;;;-1.70;99.90;;;;;;5055608;28;20051;-55
2023/01/27 02:44:07;;;;;;;35.58;18.02;;;-1.70;99.90;;;;;;5054550;28;20056;-55
2023/01/27 02:46:34;;;;;;;30.90;16.85;;;-1.70;99.90;;;;;;5045486;28;20043;-53
2023/01/27 02:49:02;;;;;;;34.22;17.83;;;-1.60;99.90;;;;;;5045266;28;20049;-56
2023/01/27 02:51:29;;;;;;;33.85;17.95;;;-1.60;99.90;;;;;;5039362;28;20064;-55
2023/01/27 02:53:57;;;;;;;32.72;17.48;;;-1.60;99.90;;;;;;5039596;28;20076;-54
2023/01/27 02:56:25;;;;;;;32.58;17.60;;;-1.60;99.90;;;;;;5042932;28;20051;-54
2023/01/27 02:58:55;;;;;;;35.78;17.35;;;-1.60;99.90;;;;;;5039346;28;20047;-54
2023/01/27 03:01:31;;;;;;;46.03;20.23;;;-1.60;99.90;;;;;;5049433;28;20650;-53
2023/01/27 03:03:59;;;;;;;45.42;20.73;;;-1.60;99.90;;;;;;5039617;28;20458;-56
2023/01/27 03:06:25;;;;;;;42.28;19.52;;;-1.60;99.90;;;;;;5049430;28;20041;-55
2023/01/27 03:08:52;;;;;;;44.33;19.88;;;-1.60;99.90;;;;;;5038229;28;20317;-54
2023/01/27 03:14:07;;;;;;;37.58;18.83;;;-1.60;99.90;;;;;;5040738;28;19931;-55
2023/01/27 03:19:19;;;;;;;40.80;21.33;;;-1.60;99.90;;;;;;5049407;28;20041;-54
2023/01/27 03:21:49;;;;;;;46.35;21.33;;;-1.60;99.90;;;;;;5041670;28;20341;-56
2023/01/27 03:24:16;;;;;;;47.13;23.05;;;-1.60;99.90;;;;;;5056311;28;20131;-55
2023/01/27 03:26:43;;;;;;;45.13;20.90;;;-1.60;99.90;;;;;;5038410;28;20139;-56
2023/01/27 03:32:00;;;;;;;41.60;21.70;;;-1.60;99.90;;;;;;5038178;28;20344;-56
2023/01/27 03:34:28;;;;;;;46.60;22.00;;;-1.60;99.90;;;;;;5037213;28;20076;-54
2023/01/27 03:48:06;;;;;;;41.25;20.35;;;-1.60;99.90;;;;;;5038000;28;20393;-54
2023/01/27 03:50:42;;;;;;;;;;;-1.60;99.90;;;;;;5041091;28;20568;-53
2023/01/27 03:53:09;;;;;;;38.40;19.83;;;-1.60;99.90;;;;;;5041543;28;19979;-55
2023/01/27 03:55:37;;;;;;;39.38;19.73;;;-1.60;99.90;;;;;;5040653;28;20662;-56
2023/01/27 03:58:19;;;;;;;44.67;21.33;;;-1.60;99.90;;;;;;5038256;28;20730;-54
2023/01/27 04:01:05;;;;;;;37.65;19.30;;;-1.60;99.90;;;;;;5037452;28;20049;-53
2023/01/27 04:09:08;;;;;;;43.97;21.23;;;-1.60;99.90;;;;;;5039408;28;20075;-56
2023/01/27 04:11:54;;;;;;;39.67;20.48;;;-1.60;99.90;;;;;;5040424;28;20078;-55
2023/01/27 04:14:40;;;;;;;41.70;20.20;;;-1.60;99.90;;;;;;5037680;28;20529;-56
2023/01/27 04:17:12;;;;;;;40.33;18.17;;;-1.60;99.90;;;;;;5040173;28;20048;-54
2023/01/27 04:19:39;;;;;;;31.55;16.20;;;-1.60;99.90;;;;;;5041105;28;20079;-55
2023/01/27 04:22:07;;;;;;;27.80;14.93;;;-1.60;99.90;;;;;;5047794;28;20080;-55
2023/01/27 04:24:34;;;;;;;29.05;14.80;;;-1.60;99.90;;;;;;5045931;28;20056;-55
2023/01/27 04:27:06;;;;;;;34.40;15.77;;;-1.60;99.90;;;;;;5040282;28;20432;-55
2023/01/27 04:29:35;;;;;;;28.90;14.32;;;-1.60;99.90;;;;;;5037004;28;20252;-54
2023/01/27 04:32:04;;;;;;;30.83;14.30;;;-1.60;99.90;;;;;;5040448;28;20375;-54
2023/01/27 04:34:32;;;;;;;26.60;13.10;;;-1.60;99.90;;;;;;5039905;28;20323;-55
2023/01/27 04:36:59;;;;;;;27.63;13.07;;;-1.60;99.90;;;;;;5040812;28;20106;-54
2023/01/27 04:39:25;;;;;;;25.38;13.90;;;-1.60;99.90;;;;;;5041030;28;20690;-53
2023/01/27 04:41:52;;;;;;;;;;;-1.60;99.90;;;;;;5040271;28;20131;-54
2023/01/27 04:44:19;;;;;;;25.98;14.68;;;-1.60;99.90;;;;;;5041305;28;20296;-52
2023/01/27 04:46:46;;;;;;;;;;;-1.60;99.90;;;;;;5042323;28;20052;-55
2023/01/27 04:49:13;;;;;;;28.07;13.30;;;-1.60;99.90;;;;;;5039888;28;19964;-54
2023/01/27 04:51:39;;;;;;;30.63;14.93;;;-1.60;99.90;;;;;;5040502;28;20253;-55
2023/01/27 04:54:07;;;;;;;32.05;15.63;;;-1.60;99.90;;;;;;5040605;28;20072;-54
2023/01/27 04:56:58;;;;;;;29.45;14.93;;;-1.60;99.90;;;;;;5039229;28;20108;-55
2023/01/27 04:59:25;;;;;;;26.63;14.70;;;-1.70;99.90;;;;;;5037400;28;20527;-53
2023/01/27 05:01:52;;;;;;;24.25;12.57;;;-1.60;99.90;;;;;;5039649;28;20048;-55
2023/01/27 05:04:19;;;;;;;27.27;13.95;;;-1.70;99.90;;;;;;5039383;28;20072;-53
2023/01/27 05:06:46;;;;;;;29.67;14.85;;;-1.70;99.90;;;;;;5038991;28;20048;-53
2023/01/27 05:09:12;;;;;;;31.55;15.40;;;-1.70;99.90;;;;;;5038734;28;20264;-54
2023/01/27 05:11:39;;;;;;;;;;;-1.70;99.90;;;;;;5038433;28;20245;-53
2023/01/27 05:14:06;;;;;;;27.80;13.45;;;-1.60;99.90;;;;;;5040348;28;19925;-55
2023/01/27 05:16:33;;;;;;;29.02;14.50;;;-1.70;99.90;;;;;;5036189;28;20483;-55
2023/01/27 05:19:00;;;;;;;;;;;-1.70;99.90;;;;;;5039658;28;20416;-53
2023/01/27 05:21:27;;;;;;;30.65;14.07;;;-1.70;99.90;;;;;;5038488;28;20434;-54
2023/01/27 05:23:54;;;;;;;;;;;-1.60;99.90;;;;;;5039846;28;20324;-55
2023/01/27 05:26:26;;;;;;;30.67;14.13;;;-1.70;99.90;;;;;;5043194;28;20024;-54
2023/01/27 05:28:55;;;;;;;29.50;14.38;;;-1.70;99.90;;;;;;5036271;28;20056;-55
2023/01/27 05:31:24;;;;;;;27.50;15.40;;;-1.70;99.90;;;;;;5038405;28;20064;-55
2023/01/27 05:33:53;;;;;;;31.25;15.00;;;-1.70;99.90;;;;;;5039050;28;20422;-53
2023/01/27 05:36:22;;;;;;;32.15;15.15;;;-1.70;99.90;;;;;;5038881;28;20157;-57
2023/01/27 05:38:49;;;;;;;30.13;15.00;;;-1.70;99.90;;;;;;5038210;28;20114;-57
2023/01/27 05:41:18;;;;;;;32.50;15.18;;;-1.70;99.90;;;;;;5038619;28;20110;-58
2023/01/27 05:43:46;;;;;;;28.40;14.85;;;-1.80;99.90;;;;;;5039177;28;20060;-56
2023/01/27 05:46:15;;;;;;;28.02;14.70;;;-1.70;99.90;;;;;;5039253;28;20075;-57
2023/01/27 05:48:44;;;;;;;31.60;15.77;;;-1.80;99.90;;;;;;5036731;28;20051;-54
2023/01/27 05:51:13;;;;;;;29.90;16.15;;;-1.70;99.90;;;;;;5036508;28;20451;-56
2023/01/27 05:53:41;;;;;;;29.27;15.50;;;-1.70;99.90;;;;;;5038028;28;20045;-54
2023/01/27 05:56:10;;;;;;;29.10;15.73;;;-1.70;99.90;;;;;;5040025;28;20154;-54
2023/01/27 05:58:38;;;;;;;34.92;16.52;;;-1.70;99.90;;;;;;5035492;28;20421;-55
2023/01/27 06:01:10;;;;;;;32.38;14.95;;;-1.80;99.90;;;;;;5036452;28;20336;-56
2023/01/27 06:03:38;;;;;;;35.50;17.77;;;-1.80;99.90;;;;;;5035736;28;20052;-56
2023/01/27 06:06:06;;;;;;;32.72;15.35;;;-1.80;99.90;;;;;;5040284;28;20282;-57
2023/01/27 06:08:34;;;;;;;34.05;16.88;;;-1.80;99.90;;;;;;5038496;28;20447;-57
2023/01/27 06:11:02;;;;;;;31.13;14.95;;;-1.80;99.90;;;;;;5038575;28;20466;-56
2023/01/27 06:13:29;;;;;;;28.85;15.80;;;-1.80;99.90;;;;;;5037353;28;20520;-54
2023/01/27 06:15:56;;;;;;;37.03;17.98;;;-1.80;99.90;;;;;;5037926;28;20033;-55
2023/01/27 06:18:23;;;;;;;32.50;17.02;;;-1.80;99.90;;;;;;5036105;28;20521;-54
2023/01/27 06:20:49;;;;;;;35.97;17.80;;;-1.80;99.90;;;;;;5039255;28;20037;-55
2023/01/27 06:23:17;;;;;;;;;;;-1.80;99.90;;;;;;5038056;28;20530;-55
2023/01/27 06:25:48;;;;;;;32.38;16.08;;;-1.80;99.90;;;;;;5042210;28;19934;-57
2023/01/27 06:28:16;;;;;;;39.75;17.75;;;-1.80;99.90;;;;;;5042862;28;20610;-55
2023/01/27 06:30:56;;;;;;;33.80;17.20;;;-1.80;99.90;;;;;;5041617;28;20048;-55
2023/01/27 06:33:22;;;;;;;36.50;18.52;;;-1.80;99.90;;;;;;5041120;28;20283;-54
2023/01/27 06:35:49;;;;;;;36.15;17.90;;;-1.80;99.90;;;;;;5042240;28;20505;-54
2023/01/27 06:38:16;;;;;;;33.65;17.48;;;-1.80;99.90;;;;;;5041296;28;20235;-54
2023/01/27 06:40:43;;;;;;;;;;;-1.80;99.90;;;;;;5039724;28;20068;-52
2023/01/27 06:43:13;;;;;;;38.63;17.50;;;-1.80;99.90;;;;;;5043389;28;19932;-56
2023/01/27 06:45:40;;;;;;;35.40;16.20;;;-1.80;99.90;;;;;;5043699;28;20171;-55
2023/01/27 06:48:10;;;;;;;39.90;17.95;;;-1.90;99.90;;;;;;5038877;28;20098;-54
2023/01/27 06:50:36;;;;;;;32.65;16.13;;;-1.90;99.90;;;;;;5043953;28;20064;-55
2023/01/27 06:53:05;;;;;;;37.65;17.83;;;-1.80;99.90;;;;;;5040337;28;20049;-55
2023/01/27 06:56:06;;;;;;;38.08;17.02;;;-1.90;99.90;;;;;;5056968;28;20216;-55
2023/01/27 06:58:33;;;;;;;34.83;18.30;;;-1.90;99.90;;;;;;5054380;28;20083;-54
2023/01/27 07:01:00;;;;;;;36.97;16.30;;;-1.90;99.90;;;;;;5057707;28;20094;-53
2023/01/27 07:03:26;;;;;;;34.80;15.73;;;-1.90;99.90;;;;;;5056553;28;20535;-53
2023/01/27 07:05:53;;;;;;;29.60;16.02;;;-1.90;99.90;;;;;;5053939;28;20047;-54
2023/01/27 07:08:20;;;;;;;32.47;16.75;;;-1.90;99.90;;;;;;5056102;28;20051;-55
2023/01/27 07:10:46;;;;;;;;;;;-1.90;99.90;;;;;;5054897;28;20072;-53
2023/01/27 07:13:14;;;;;;;40.97;16.02;;;-1.80;99.90;;;;;;5055908;28;20518;-54
2023/01/27 07:15:41;;;;;;;34.60;16.02;;;-1.80;99.90;;;;;;5060220;28;20133;-54
2023/01/27 07:18:10;;;;;;;32.92;15.38;;;-1.80;99.90;;;;;;5051959;28;20446;-54
2023/01/27 07:20:36;;;;;;;44.47;17.77;;;-1.80;99.90;;;;;;5053847;28;20128;-53
2023/01/27 07:23:04;;;;;;;37.13;15.63;;;-1.80;99.90;;;;;;5052844;28;20524;-54
2023/01/27 07:25:33;;;;;;;29.10;15.02;;;-1.80;99.90;;;;;;5056373;28;20048;-55
2023/01/27 07:28:01;;;;;;;38.78;17.67;;;-1.80;99.90;;;;;;5055002;28;20539;-52
2023/01/27 07:30:29;;;;;;;36.75;16.45;;;-1.80;99.90;;;;;;5056720;28;20041;-53
2023/01/27 07:33:04;;;;;;;37.95;16.90;;;-1.80;99.90;;;;;;5057147;28;20442;-54
2023/01/27 07:35:31;;;;;;;35.50;17.55;;;-1.80;99.90;;;;;;5063113;28;20049;-55
2023/01/27 07:37:57;;;;;;;;;;;-1.70;99.90;;;;;;5053966;28;20045;-54
2023/01/27 07:40:24;;;;;;;35.23;17.13;;;-1.70;99.90;;;;;;5056152;28;20270;-53
2023/01/27 07:42:51;;;;;;;40.20;18.67;;;-1.70;99.90;;;;;;5054921;28;20494;-56
2023/01/27 07:45:18;;;;;;;37.15;16.40;;;-1.70;99.90;;;;;;5063067;28;20055;-53
2023/01/27 07:47:45;;;;;;;;;;;-1.70;99.90;;;;;;5052693;28;20074;-56
2023/01/27 07:50:12;;;;;;;38.55;16.27;;;-1.70;99.90;;;;;;5052163;28;19925;-56
2023/01/27 07:52:39;;;;;;;32.78;15.45;;;-1.70;99.90;;;;;;5056588;28;20427;-56
2023/01/27 07:55:06;;;;;;;;;;;-1.70;99.90;;;;;;5058062;28;20064;-54
2023/01/27 07:57:33;;;;;;;45.28;19.65;;;-1.70;99.90;;;;;;5054816;28;19928;-55
2023/01/27 08:00:00;;;;;;;41.85;20.52;;;-1.70;99.90;;;;;;5054203;28;20069;-55
2023/01/27 08:02:37;;;;;;;;;;;-1.70;99.90;;;;;;5056193;28;20399;-56
2023/01/27 08:05:04;;;;;;;37.92;17.85;;;-1.70;99.90;;;;;;5052639;28;20090;-55
2023/01/27 08:07:31;;;;;;;35.38;18.00;;;-1.70;99.90;;;;;;5040707;28;20048;-55
2023/01/27 08:09:58;;;;;;;37.90;17.85;;;-1.70;99.90;;;;;;5037873;28;20064;-54
2023/01/27 08:12:24;;;;;;;37.80;17.10;;;-1.70;99.90;;;;;;5040442;28;20339;-53
2023/01/27 08:14:51;;;;;;;;;;;-1.70;99.90;;;;;;5042750;28;20430;-56
2023/01/27 08:17:18;;;;;;;38.95;16.95;;;-1.70;99.90;;;;;;5040964;28;20354;-53
2023/01/27 08:19:44;;;;;;;;;;;-1.70;99.90;;;;;;5042064;28;20037;-54
2023/01/27 08:22:16;;;;;;;36.13;16.48;;;-1.70;99.90;;;;;;5043433;28;19924;-54
2023/01/27 08:24:43;;;;;;;35.60;16.73;;;-1.70;99.90;;;;;;5041329;28;20133;-54
2023/01/27 08:27:10;;;;;;;;;;;-1.70;99.90;;;;;;5041487;28;20352;-59
2023/01/27 08:29:37;;;;;;;34.47;17.42;;;-1.60;99.90;;;;;;5040559;28;19959;-53
2023/01/27 08:32:03;;;;;;;;;;;-1.60;99.90;;;;;;5040988;28;20051;-63
2023/01/27 08:34:30;;;;;;;27.77;15.20;;;-1.60;99.90;;;;;;5040642;28;19920;-51
2023/01/27 08:36:57;;;;;;;36.65;17.50;;;-1.60;99.90;;;;;;5042717;28;20051;-51
2023/01/27 08:39:24;;;;;;;31.30;14.45;;;-1.60;99.90;;;;;;5039228;28;20571;-54
2023/01/27 08:41:51;;;;;;;;;;;-1.60;99.90;;;;;;5042327;28;20188;-54
2023/01/27 08:44:18;;;;;;;36.53;14.27;;;-1.60;99.90;;;;;;5039449;28;20031;-53
2023/01/27 08:46:44;;;;;;;34.20;15.75;;;-1.60;99.90;;;;;;5041698;28;21512;-53
2023/01/27 08:49:14;;;;;;;29.73;14.20;;;-1.50;99.90;;;;;;5038912;28;20368;-53
2023/01/27 08:51:42;;;;;;;27.17;13.55;;;-1.50;99.90;;;;;;5041339;28;20079;-54
2023/01/27 08:54:08;;;;;;;31.00;13.57;;;-1.60;99.90;;;;;;5042608;28;20575;-54
2023/01/27 08:56:35;;;;;;;31.60;13.93;;;-1.50;99.90;;;;;;5040014;28;20402;-61
2023/01/27 08:59:02;;;;;;;;;;;-1.50;99.90;;;;;;5039476;28;20159;-55
2023/01/27 09:01:28;;;;;;;25.45;12.02;;;-1.50;99.90;;;;;;5041873;28;20454;-55
2023/01/27 09:03:55;;;;;;;24.70;11.27;;;-1.50;99.90;;;;;;5038602;28;20055;-54
2023/01/27 09:06:22;;;;;;;;;;;-1.50;99.90;;;;;;5040955;28;20045;-54
2023/01/27 09:09:07;;;;;;;25.33;10.82;;;-1.50;99.90;;;;;;5039706;28;19924;-54
2023/01/27 09:11:40;;;;;;;23.38;10.82;;;-1.50;99.90;;;;;;5039886;28;20045;-61
2023/01/27 09:14:07;;;;;;;23.48;9.70;;;-1.40;99.90;;;;;;5038463;28;20045;-53
2023/01/27 09:16:34;;;;;;;21.98;11.50;;;-1.50;99.90;;;;;;5036541;28;20051;-52
2023/01/27 09:19:01;;;;;;;23.35;12.02;;;-1.50;99.90;;;;;;5037350;28;20522;-59
2023/01/27 09:21:28;;;;;;;22.10;10.52;;;-1.40;99.90;;;;;;5037884;28;20559;-49
2023/01/27 09:23:55;;;;;;;19.15;9.43;;;-1.40;99.90;;;;;;5038529;28;20048;-54
2023/01/27 09:26:22;;;;;;;19.63;10.18;;;-1.40;99.90;;;;;;5040036;28;20138;-51
2023/01/27 09:28:48;;;;;;;;;;;-1.40;99.90;;;;;;5037848;28;20044;-54
2023/01/27 09:31:15;;;;;;;19.50;9.63;;;-1.40;99.90;;;;;;5038517;28;20252;-53
2023/01/27 09:33:42;;;;;;;19.42;9.63;;;-1.40;99.90;;;;;;5039118;28;20107;-53
2023/01/27 09:36:10;;;;;;;;;;;-1.40;99.90;;;;;;5039231;28;20618;-52
2023/01/27 09:38:54;;;;;;;17.58;9.30;;;-1.40;99.90;;;;;;5040522;28;20172;-53
2023/01/27 09:41:31;;;;;;;18.30;8.85;;;-1.30;99.90;;;;;;5039563;28;20040;-52
2023/01/27 09:44:21;;;;;;;19.55;9.38;;;-1.30;99.90;;;;;;5040081;28;20396;-50
2023/01/27 09:47:30;;;;;;;17.23;8.88;;;-1.30;99.90;;;;;;5037637;28;20284;-53
2023/01/27 09:50:15;;;;;;;20.30;9.57;;;-1.30;99.90;;;;;;5041508;28;20149;-51
2023/01/27 09:53:14;;;;;;;19.90;9.15;;;-1.30;99.90;;;;;;5042133;28;20036;-52
2023/01/27 09:56:05;;;;;;;20.25;9.35;;;-1.20;99.90;;;;;;5036524;28;20032;-53
2023/01/27 09:58:54;;;;;;;18.17;9.02;;;-1.20;99.90;;;;;;5037164;28;20041;-53
2023/01/27 10:01:36;;;;;;;19.85;8.90;;;-1.30;99.90;;;;;;5037495;28;20545;-52
2023/01/27 10:04:23;;;;;;;23.20;9.48;;;-1.30;99.90;;;;;;5037555;28;20221;-54
2023/01/27 10:06:59;;;;;;;;;;;-1.30;99.90;;;;;;5040912;28;20382;-56
2023/01/27 10:09:44;;;;;;;18.15;8.55;;;-1.30;99.90;;;;;;5036123;28;20218;-54
2023/01/27 10:12:39;;;;;;;20.15;8.63;;;-1.20;99.90;;;;;;5037781;28;20052;-54
2023/01/27 10:15:15;;;;;;;15.30;8.43;;;-1.20;99.90;;;;;;5038829;28;20191;-55
2023/01/27 10:18:00;;;;;;;17.33;8.85;;;-1.20;99.90;;;;;;5037576;28;20045;-59
2023/01/27 10:21:04;;;;;;;18.10;9.32;;;-1.30;99.90;;;;;;5037584;28;20037;-54
2023/01/27 10:23:50;;;;;;;19.08;8.75;;;-1.30;99.90;;;;;;5038806;28;20036;-53
2023/01/27 10:26:48;;;;;;;17.27;8.20;;;-1.20;99.90;;;;;;5036816;28;20455;-52
2023/01/27 10:29:20;;;;;;;14.93;8.50;;;-1.30;99.90;;;;;;5036596;28;20040;-51
2023/01/27 10:32:10;;;;;;;18.58;9.43;;;-1.30;99.90;;;;;;5037350;28;20155;-53
2023/01/27 10:34:45;;;;;;;16.02;7.55;;;-1.20;99.90;;;;;;5039386;28;20048;-58
2023/01/27 10:37:24;;;;;;;20.75;8.80;;;-1.20;99.90;;;;;;5038676;28;20099;-53
2023/01/27 10:40:20;;;;;;;17.48;8.82;;;-1.20;99.90;;;;;;5037055;28;20538;-53
2023/01/27 10:42:58;;;;;;;14.88;7.70;;;-1.10;99.90;;;;;;5037157;28;20128;-54
2023/01/27 10:45:45;;;;;;;17.30;8.82;;;-1.10;99.90;;;;;;5038455;28;20531;-53
2023/01/27 10:48:24;;;;;;;17.23;9.00;;;-1.20;99.90;;;;;;5039463;28;20056;-53
2023/01/27 10:51:18;;;;;;;18.77;7.70;;;-1.20;99.90;;;;;;5038515;28;20041;-53
2023/01/27 10:54:01;;;;;;;14.95;7.57;;;-1.30;99.90;;;;;;5037889;28;20056;-52
2023/01/27 10:56:39;;;;;;;14.60;8.43;;;-1.30;99.90;;;;;;5040436;28;20790;-53
2023/01/27 10:59:30;;;;;;;16.02;7.80;;;-1.30;99.90;;;;;;5039636;28;20049;-54
2023/01/27 11:02:14;;;;;;;18.02;8.45;;;-1.30;99.90;;;;;;5028140;28;20106;-54
2023/01/27 11:04:48;;;;;;;21.55;9.32;;;-1.20;99.90;;;;;;5010666;28;20112;-54
2023/01/27 11:07:20;;;;;;;20.45;9.52;;;-1.20;99.90;;;;;;5010103;28;20060;-54
2023/01/27 11:10:09;;;;;;;15.77;7.68;;;-1.20;99.90;;;;;;5010491;28;20049;-54
2023/01/27 11:12:42;;;;;;;16.25;8.68;;;-1.20;99.90;;;;;;5011021;28;20421;-53
2023/01/27 11:15:25;;;;;;;19.92;8.75;;;-1.20;99.90;;;;;;5010955;28;20124;-54
2023/01/27 11:18:02;;;;;;;15.45;8.50;;;-1.20;99.90;;;;;;5009435;28;20548;-53
2023/01/27 11:20:35;;;;;;;20.67;8.30;;;-1.20;99.90;;;;;;5010044;28;20121;-53
2023/01/27 11:23:08;;;;;;;17.67;8.07;;;-1.20;99.90;;;;;;5008570;28;20050;-54
2023/01/27 11:26:19;;;;;;;17.83;8.45;;;-1.20;99.90;;;;;;5009969;28;20160;-54
2023/01/27 11:29:16;;;;;;;16.15;7.38;;;-1.10;99.90;;;;;;5000133;28;20155;-54
2023/01/27 11:32:04;;;;;;;18.20;8.52;;;-1.10;99.90;;;;;;5009699;28;20384;-50
2023/01/27 11:34:58;;;;;;;18.90;8.57;;;-1.10;99.90;;;;;;5009960;28;20045;-53
2023/01/27 11:37:36;;;;;;;19.60;8.07;;;-1.20;99.90;;;;;;5003345;28;20465;-52
2023/01/27 11:40:03;;;;;;;;;;;-1.20;99.90;;;;;;5010193;28;20076;-54
2023/01/27 11:42:34;;;;;;;14.50;8.05;;;-1.20;99.90;;;;;;5012678;28;19936;-54
2023/01/27 11:45:01;;;;;;;13.73;7.78;;;-1.20;99.90;;;;;;5011894;28;20060;-54
2023/01/27 11:47:33;;;;;;;13.00;6.35;;;-1.20;99.90;;;;;;5013401;28;20041;-54
2023/01/27 11:50:00;;;;;;;11.15;6.72;;;-1.10;99.90;;;;;;5014015;28;20333;-55
2023/01/27 11:52:28;;;;;;;13.18;6.70;;;-1.00;99.90;;;;;;5013490;28;20042;-54
2023/01/27 11:55:16;;;;;;;12.27;6.85;;;-1.00;99.90;;;;;;5003023;28;20066;-54
2023/01/27 11:57:52;;;;;;;12.65;6.57;;;-1.00;99.90;;;;;;5014091;28;20454;-54
2023/01/27 12:00:30;;;;;;;10.50;5.70;;;-0.90;99.90;;;;;;5013517;28;20385;-52
2023/01/27 12:03:06;;;;;;;15.60;6.47;;;-0.90;99.90;;;;;;5012630;28;20049;-54
2023/01/27 12:05:35;;;;;;;15.50;6.80;;;-0.90;99.90;;;;;;5012121;28;20045;-54
2023/01/27 12:08:03;;;;;;;14.48;7.22;;;-0.90;99.90;;;;;;5012548;28;20049;-53
2023/01/27 12:10:32;;;;;;;11.35;5.80;;;-0.90;99.90;;;;;;5013073;28;20611;-54
2023/01/27 12:13:19;;;;;;;14.52;6.57;;;-0.90;99.90;;;;;;5013712;28;20056;-52
2023/01/27 12:16:00;;;;;;;11.55;6.45;;;-0.90;99.90;;;;;;5013597;28;20041;-54
2023/01/27 12:18:31;;;;;;;12.10;6.18;;;-0.90;99.90;;;;;;5011570;28;20121;-53
2023/01/27 12:21:00;;;;;;;11.38;6.22;;;-0.90;99.90;;;;;;5014258;28;20055;-55
2023/01/27 12:23:54;;;;;;;10.30;5.85;;;-0.90;99.90;;;;;;5012145;28;20046;-53
2023/01/27 12:26:36;;;;;;;13.88;6.35;;;-0.90;99.90;;;;;;5009775;28;20057;-54
2023/01/27 12:29:28;;;;;;;15.32;6.60;;;-0.90;99.90;;;;;;5012973;28;20046;-54
2023/01/27 12:31:57;;;;;;;11.02;6.38;;;-0.90;99.90;;;;;;5013584;28;20255;-54
2023/01/27 12:34:26;;;;;;;13.57;6.50;;;-0.90;99.90;;;;;;5003615;28;20261;-54
2023/01/27 12:36:55;;;;;;;12.85;6.18;;;-0.90;99.90;;;;;;5013420;28;20111;-53
2023/01/27 12:39:45;;;;;;;15.45;7.55;;;-1.00;99.90;;;;;;5010946;28;20592;-53
2023/01/27 12:42:33;;;;;;;13.75;6.72;;;-1.00;99.90;;;;;;5027499;28;20515;-52
2023/01/27 12:45:28;;;;;;;12.13;6.15;;;-1.00;99.90;;;;;;5012979;28;20123;-54
2023/01/27 12:48:09;;;;;;;17.70;7.35;;;-1.00;99.90;;;;;;5012075;28;20705;-53
2023/01/27 12:51:00;;;;;;;18.60;8.68;;;-1.00;99.90;;;;;;5012696;28;20053;-54
2023/01/27 12:53:27;;;;;;;18.40;8.40;;;-1.10;99.90;;;;;;5012474;28;20103;-55
2023/01/27 12:55:59;;;;;;;;;;;-1.10;99.90;;;;;;5013216;28;20214;-51
2023/01/27 12:58:38;;;;;;;12.43;6.63;;;-1.00;99.90;;;;;;5006401;28;19963;-56
2023/01/27 13:01:27;;;;;;;16.15;7.38;;;-1.00;99.90;;;;;;5011626;28;20605;-57
2023/01/27 13:04:22;;;;;;;17.38;8.35;;;-1.00;99.90;;;;;;5011639;28;20069;-54
2023/01/27 13:06:54;;;;;;;18.35;8.10;;;-1.00;99.90;;;;;;5009898;28;20280;-64
2023/01/27 13:09:28;;;;;;;15.18;7.72;;;-1.00;99.90;;;;;;5010564;28;20380;-59
2023/01/27 13:11:59;;;;;;;18.38;8.85;;;-1.00;99.90;;;;;;5011093;28;20123;-57
2023/01/27 13:14:34;;;;;;;19.15;8.13;;;-1.00;99.90;;;;;;5008904;28;20425;-53
2023/01/27 13:17:01;;;;;;;14.18;7.25;;;-1.00;99.90;;;;;;5010979;28;20412;-55
2023/01/27 13:19:44;;;;;;;18.63;8.25;;;-1.00;99.90;;;;;;5010928;28;20364;-55
2023/01/27 13:22:18;;;;;;;21.65;9.20;;;-1.00;99.90;;;;;;5011751;28;20132;-56
2023/01/27 13:24:49;;;;;;;13.60;7.32;;;-1.00;99.90;;;;;;5009381;28;20103;-56
2023/01/27 13:27:20;;;;;;;16.55;7.32;;;-1.00;99.90;;;;;;5010198;28;20072;-59
2023/01/27 13:29:59;;;;;;;14.93;7.60;;;-1.00;99.90;;;;;;5010948;28;20199;-56
2023/01/27 13:32:29;;;;;;;13.52;6.60;;;-1.00;99.90;;;;;;5025417;28;20112;-54
2023/01/27 13:35:14;;;;;;;11.95;6.78;;;-1.00;99.90;;;;;;5010714;28;20111;-55
2023/01/27 13:37:50;;;;;;;14.82;7.55;;;-1.00;99.90;;;;;;5009479;28;20052;-55
2023/01/27 13:40:26;;;;;;;15.45;7.35;;;-1.10;99.90;;;;;;5010011;28;20477;-55